createdAt,value
2023-05-08T00:02:52.341Z,16.01
2023-05-08T00:07:55.574Z,16.01
2023-05-08T00:12:57.505Z,16.01
2023-05-08T00:17:59.251Z,16.01
2023-05-08T00:23:02.306Z,15.98
2023-05-08T00:28:04.030Z,15.95
2023-05-08T00:33:05.702Z,15.94
2023-05-08T00:38:08.785Z,15.94
2023-05-08T00:43:10.407Z,15.94
2023-05-08T00:48:12.436Z,15.89
2023-05-08T00:53:16.640Z,15.89
2023-05-08T00:58:19.456Z,15.88
2023-05-08T01:03:22.308Z,15.86
2023-05-08T01:08:25.435Z,15.83
2023-05-08T01:13:35.834Z,15.79
2023-05-08T01:18:45.731Z,15.75
2023-05-08T01:24:19.138Z,15.72
2023-05-08T01:29:58.040Z,15.66
2023-05-08T01:35:09.980Z,15.63
2023-05-08T01:40:21.613Z,15.64
2023-05-08T01:45:29.085Z,15.62
2023-05-08T01:50:36.490Z,15.64
2023-05-08T01:55:40.221Z,15.63
2023-05-08T02:00:44.119Z,15.62
2023-05-08T02:05:49.182Z,15.61
2023-05-08T02:10:52.065Z,15.57
2023-05-08T02:15:56.121Z,15.55
2023-05-08T02:21:00.767Z,15.56
2023-05-08T02:26:04.672Z,15.48
2023-05-08T02:31:07.958Z,15.51
2023-05-08T02:36:13.696Z,15.48
2023-05-08T02:41:18.046Z,15.45
2023-05-08T02:46:25.562Z,15.43
2023-05-08T02:51:43.838Z,15.46
2023-05-08T02:56:56.042Z,15.36
2023-05-08T03:02:06.706Z,15.36
2023-05-08T03:07:10.670Z,15.35
2023-05-08T03:12:15.048Z,15.32
2023-05-08T03:17:18.773Z,15.27
2023-05-08T03:22:23.914Z,15.27
2023-05-08T03:27:28.717Z,15.26
2023-05-08T03:32:33.131Z,15.27
2023-05-08T03:37:36.411Z,15.21
2023-05-08T03:42:40.028Z,15.23
2023-05-08T03:47:44.417Z,15.19
2023-05-08T03:52:48.479Z,15.14
2023-05-08T03:57:57.801Z,15.18
2023-05-08T04:03:13.903Z,15.22
2023-05-08T04:08:20.161Z,15.22
2023-05-08T04:13:28.308Z,15.18
2023-05-08T04:18:31.236Z,15.15
2023-05-08T04:23:36.210Z,15.15
2023-05-08T04:28:38.745Z,15.16
2023-05-08T04:33:45.085Z,15.14
2023-05-08T04:38:48.175Z,15.15
2023-05-08T04:43:50.046Z,15.02
2023-05-08T04:48:51.733Z,15.04
2023-05-08T04:53:54.724Z,14.93
2023-05-08T04:58:56.373Z,14.99
2023-05-08T05:03:58.072Z,15.01
2023-05-08T05:09:03.249Z,14.94
2023-05-08T05:14:04.895Z,14.92
2023-05-08T05:19:06.594Z,14.96
2023-05-08T05:24:09.743Z,15.04
2023-05-08T05:29:11.545Z,15.05
2023-05-08T05:34:13.254Z,15.13
2023-05-08T05:39:16.295Z,15.16
2023-05-08T05:44:23.103Z,15.18
2023-05-08T05:49:28.304Z,15.21
2023-05-08T05:54:36.289Z,15.18
2023-05-08T05:59:40.486Z,15.12
2023-05-08T06:04:46.220Z,15.18
2023-05-08T06:09:55.097Z,15.12
2023-05-08T06:15:09.980Z,15.04
2023-05-08T06:20:12.348Z,14.97
2023-05-08T06:25:15.547Z,15.07
2023-05-08T06:30:17.290Z,15.13
2023-05-08T06:35:18.976Z,15.13
2023-05-08T06:40:22.415Z,15.11
2023-05-08T06:45:24.133Z,15.16
2023-05-08T06:50:25.854Z,15.10
2023-05-08T06:55:28.969Z,15.15
2023-05-08T07:00:30.642Z,15.25
2023-05-08T07:05:32.339Z,15.21
2023-05-08T07:10:35.448Z,15.30
2023-05-08T07:15:40.065Z,15.32
2023-05-08T07:20:41.718Z,15.34
2023-05-08T07:25:44.730Z,15.42
2023-05-08T07:30:46.430Z,15.38
2023-05-08T07:35:50.522Z,15.40
2023-05-08T07:40:53.504Z,15.44
2023-05-08T07:45:55.120Z,15.44
2023-05-08T07:50:56.805Z,15.47
2023-05-08T07:55:59.783Z,15.46
2023-05-08T08:01:01.426Z,15.49
2023-05-08T08:06:03.365Z,15.31
2023-05-08T08:11:06.749Z,15.32
2023-05-08T08:16:08.434Z,15.44
2023-05-08T08:21:10.166Z,15.47
2023-05-08T08:26:14.653Z,15.42
2023-05-08T08:31:19.806Z,15.49
2023-05-08T08:36:23.907Z,15.43
2023-05-08T08:41:26.934Z,15.43
2023-05-08T08:46:28.665Z,15.44
2023-05-08T08:51:33.367Z,15.49
2023-05-08T08:56:40.859Z,15.50
2023-05-08T09:07:15.071Z,15.50
2023-05-08T09:12:24.741Z,15.58
2023-05-08T09:17:37.488Z,15.54
2023-05-08T09:22:47.064Z,15.60
2023-05-08T09:27:54.859Z,15.65
2023-05-08T09:33:05.697Z,15.67
2023-05-08T09:38:10.563Z,15.68
2023-05-08T09:43:25.153Z,15.67
2023-05-08T09:48:37.184Z,15.72
2023-05-08T09:53:39.077Z,15.71
2023-05-08T09:58:46.564Z,15.68
2023-05-08T10:09:10.020Z,15.69
2023-05-08T10:14:18.964Z,15.74
2023-05-08T10:19:28.225Z,15.77
2023-05-08T10:24:33.537Z,15.83
2023-05-08T10:29:47.217Z,15.83
2023-05-08T10:35:00.306Z,15.78
2023-05-08T10:40:03.110Z,15.81
2023-05-08T10:45:07.811Z,15.79
2023-05-08T10:50:22.341Z,15.79
2023-05-08T10:55:32.512Z,15.82
2023-05-08T11:01:16.364Z,15.83
2023-05-08T11:06:38.852Z,15.84
2023-05-08T11:11:45.102Z,15.82
2023-05-08T11:17:13.587Z,15.78
2023-05-08T11:22:26.546Z,15.77
2023-05-08T11:28:20.463Z,15.77
2023-05-08T11:33:39.895Z,15.76
2023-05-08T11:39:18.102Z,15.77
2023-05-08T11:44:41.862Z,15.76
2023-05-08T11:55:26.370Z,15.75
2023-05-08T12:00:30.540Z,15.72
2023-05-08T12:05:36.646Z,15.75
2023-05-08T12:10:41.460Z,15.77
2023-05-08T12:15:43.469Z,15.79
2023-05-08T12:20:46.758Z,15.80
2023-05-08T12:25:53.789Z,15.82
2023-05-08T12:30:56.917Z,15.83
2023-05-08T12:36:00.960Z,15.81
2023-05-08T12:41:03.266Z,15.85
2023-05-08T12:46:12.681Z,15.87
2023-05-08T12:51:15.858Z,15.90
2023-05-08T12:56:22.093Z,15.94
2023-05-08T13:01:25.503Z,15.94
2023-05-08T13:06:28.995Z,15.89
2023-05-08T13:11:31.690Z,15.94
2023-05-08T13:16:42.331Z,15.99
2023-05-08T13:21:45.685Z,16.00
2023-05-08T13:26:47.366Z,16.01
2023-05-08T13:31:49.089Z,16.01
2023-05-08T13:36:52.261Z,16.01
2023-05-08T13:41:53.955Z,15.98
2023-05-08T13:46:55.668Z,15.95
2023-05-08T13:51:58.734Z,15.96
2023-05-08T13:57:01.206Z,15.95
2023-05-08T14:02:02.949Z,15.97
2023-05-08T14:07:06.466Z,15.94
2023-05-08T14:12:08.196Z,15.91
2023-05-08T14:17:09.982Z,15.91
2023-05-08T14:22:13.091Z,15.94
2023-05-08T14:27:14.812Z,15.94
2023-05-08T14:32:16.489Z,15.91
2023-05-08T14:37:19.944Z,15.88
2023-05-08T14:42:23.613Z,15.87
2023-05-08T14:47:25.736Z,15.95
2023-05-08T14:52:28.778Z,16.02
2023-05-08T14:57:30.414Z,16.09
2023-05-08T15:02:32.153Z,16.15
2023-05-08T15:07:45.636Z,16.11
2023-05-08T15:12:47.414Z,16.20
2023-05-08T15:17:49.103Z,16.22
2023-05-08T15:22:54.097Z,16.11
2023-05-08T15:27:56.780Z,16.14
2023-05-08T15:32:59.311Z,16.23
2023-05-08T15:38:05.138Z,16.19
2023-05-08T15:43:06.836Z,16.25
2023-05-08T15:48:08.585Z,16.18
2023-05-08T15:53:11.624Z,16.05
2023-05-08T15:58:13.246Z,16.11
2023-05-08T16:03:14.978Z,16.09
2023-05-08T16:08:18.802Z,16.02
2023-05-08T16:13:20.429Z,15.98
2023-05-08T16:18:22.156Z,16.01
2023-05-08T16:23:25.284Z,16.07
2023-05-08T16:28:26.938Z,16.00
2023-05-08T16:33:28.675Z,15.97
2023-05-08T16:38:31.798Z,16.05
2023-05-08T16:43:33.483Z,16.08
2023-05-08T16:48:35.247Z,16.10
2023-05-08T16:53:38.286Z,16.03
2023-05-08T16:58:40.213Z,15.96
2023-05-08T17:03:43.165Z,16.02
2023-05-08T17:08:47.594Z,16.04
2023-05-08T17:13:49.231Z,15.99
2023-05-08T17:18:50.857Z,15.95
2023-05-08T17:23:53.885Z,15.96
2023-05-08T17:28:55.522Z,16.00
2023-05-08T17:33:57.227Z,15.97
2023-05-08T17:39:03.061Z,15.94
2023-05-08T17:44:04.969Z,15.95
2023-05-08T17:49:06.638Z,15.99
2023-05-08T17:54:09.627Z,15.96
2023-05-08T17:59:11.435Z,15.96
2023-05-08T18:04:13.196Z,15.97
2023-05-08T18:09:16.258Z,15.95
2023-05-08T18:14:17.828Z,15.94
2023-05-08T18:19:19.474Z,15.94
2023-05-08T18:24:22.507Z,15.93
2023-05-08T18:29:24.161Z,15.94
2023-05-08T18:34:25.829Z,15.93
2023-05-08T18:39:28.969Z,15.90
2023-05-08T18:44:30.680Z,15.86
2023-05-08T18:49:32.298Z,15.84
2023-05-08T18:54:35.328Z,15.82
2023-05-08T18:59:37.170Z,15.79
2023-05-08T19:04:39.880Z,15.76
2023-05-08T19:09:42.983Z,15.72
2023-05-08T19:14:47.539Z,15.69
2023-05-08T19:19:49.911Z,15.65
2023-05-08T19:24:53.043Z,15.61
2023-05-08T19:29:55.174Z,15.53
2023-05-08T19:34:56.821Z,15.53
2023-05-08T19:39:59.892Z,15.49
2023-05-08T19:45:01.542Z,15.47
2023-05-08T19:50:05.111Z,15.38
2023-05-08T19:55:08.816Z,15.43
2023-05-08T20:00:11.784Z,15.41
2023-05-08T20:05:31.137Z,15.37
2023-05-08T20:10:34.211Z,15.34
2023-05-08T20:15:36.112Z,15.31
2023-05-08T20:20:37.814Z,15.27
2023-05-08T20:25:41.245Z,15.24
2023-05-08T20:30:42.943Z,15.24
2023-05-08T20:35:44.813Z,15.18
2023-05-08T20:40:47.962Z,15.15
2023-05-08T20:45:49.599Z,15.11
2023-05-08T20:50:51.334Z,15.08
2023-05-08T20:56:01.176Z,15.02
2023-05-08T21:01:03.475Z,15.06
2023-05-08T21:06:05.378Z,14.97
2023-05-08T21:11:08.480Z,14.96
2023-05-08T21:16:10.235Z,14.87
2023-05-08T21:21:15.694Z,14.96
2023-05-08T21:26:18.613Z,14.93
2023-05-08T21:31:20.570Z,14.88
2023-05-08T21:36:22.367Z,14.87
2023-05-08T21:41:25.374Z,14.90
2023-05-08T21:46:27.092Z,14.90
2023-05-08T21:51:28.770Z,14.94
2023-05-08T21:56:31.726Z,14.87
2023-05-08T22:01:33.515Z,14.71
2023-05-08T22:06:35.216Z,14.70
2023-05-08T22:11:38.264Z,14.70
2023-05-08T22:16:39.969Z,14.66
2023-05-08T22:21:42.310Z,14.65
2023-05-08T22:26:45.376Z,14.58
2023-05-08T22:31:47.014Z,14.58
2023-05-08T22:36:48.707Z,14.51
2023-05-08T22:41:51.772Z,14.48
2023-05-08T22:46:53.478Z,14.59
2023-05-08T22:51:55.265Z,14.46
2023-05-08T22:56:58.336Z,14.48
2023-05-08T23:01:59.922Z,14.36
2023-05-08T23:07:02.010Z,14.34
2023-05-08T23:12:05.679Z,14.46
2023-05-08T23:17:07.310Z,14.48
2023-05-08T23:22:09.038Z,14.48
2023-05-08T23:27:12.090Z,14.43
2023-05-08T23:32:14.468Z,14.42
2023-05-08T23:37:16.107Z,14.43
2023-05-08T23:42:20.331Z,14.37
2023-05-08T23:47:22.004Z,14.38
2023-05-08T23:52:23.618Z,14.47
2023-05-08T23:57:26.773Z,14.50
